sensor_id;sensor_type;location;lat;lon;timestamp;temperature;humidity
5276;DHT22;2661;50.786;12.728;2023-05-10T00:01:35;10.70;99.90
5276;DHT22;2661;50.786;12.728;2023-05-10T00:04:02;10.70;99.90
5276;DHT22;2661;50.786;12.728;2023-05-10T00:06:29;10.60;99.90
5276;DHT22;2661;50.786;12.728;2023-05-10T00:08:56;10.60;99.90
5276;DHT22;2661;50.786;12.728;2023-05-10T00:11:23;10.60;99.90
5276;DHT22;2661;50.786;12.728;2023-05-10T00:13:49;10.50;99.90
5276;DHT22;2661;50.786;12.728;2023-05-10T00:16:16;10.50;99.90
5276;DHT22;2661;50.786;12.728;2023-05-10T00:18:43;10.40;99.90
5276;DHT22;2661;50.786;12.728;2023-05-10T00:21:09;10.50;99.90
5276;DHT22;2661;50.786;12.728;2023-05-10T00:23:36;10.50;99.90
5276;DHT22;2661;50.786;12.728;2023-05-10T00:26:03;10.50;99.90
5276;DHT22;2661;50.786;12.728;2023-05-10T00:28:30;10.40;99.90
5276;DHT22;2661;50.786;12.728;2023-05-10T00:30:57;10.40;99.90
5276;DHT22;2661;50.786;12.728;2023-05-10T00:33:23;10.40;99.90
5276;DHT22;2661;50.786;12.728;2023-05-10T00:35:50;10.50;99.90
5276;DHT22;2661;50.786;12.728;2023-05-10T00:38:17;10.50;99.90
5276;DHT22;2661;50.786;12.728;2023-05-10T00:40:43;10.50;99.90
5276;DHT22;2661;50.786;12.728;2023-05-10T00:43:10;10.50;99.90
5276;DHT22;2661;50.786;12.728;2023-05-10T00:45:37;10.40;99.90
5276;DHT22;2661;50.786;12.728;2023-05-10T00:48:03;10.40;99.90
5276;DHT22;2661;50.786;12.728;2023-05-10T00:50:30;10.30;99.90
5276;DHT22;2661;50.786;12.728;2023-05-10T00:52:58;10.20;99.90
5276;DHT22;2661;50.786;12.728;2023-05-10T00:55:25;10.20;99.90
5276;DHT22;2661;50.786;12.728;2023-05-10T00:57:52;10.10;99.90
5276;DHT22;2661;50.786;12.728;2023-05-10T01:00:19;10.20;99.90
5276;DHT22;2661;50.786;12.728;2023-05-10T01:02:46;10.20;99.90
5276;DHT22;2661;50.786;12.728;2023-05-10T01:05:13;10.20;99.90
5276;DHT22;2661;50.786;12.728;2023-05-10T01:07:40;10.10;99.90
5276;DHT22;2661;50.786;12.728;2023-05-10T01:10:07;10.00;99.90
5276;DHT22;2661;50.786;12.728;2023-05-10T01:12:35;10.00;99.90
5276;DHT22;2661;50.786;12.728;2023-05-10T01:15:03;9.90;99.90
5276;DHT22;2661;50.786;12.728;2023-05-10T01:17:31;9.90;99.90
5276;DHT22;2661;50.786;12.728;2023-05-10T01:19:59;10.00;99.90
5276;DHT22;2661;50.786;12.728;2023-05-10T01:35:51;9.80;99.90
5276;DHT22;2661;50.786;12.728;2023-05-10T01:38:38;9.70;99.90
5276;DHT22;2661;50.786;12.728;2023-05-10T01:41:13;9.60;99.90
5276;DHT22;2661;50.786;12.728;2023-05-10T01:44:02;9.60;99.90
5276;DHT22;2661;50.786;12.728;2023-05-10T01:46:35;9.60;99.90
5276;DHT22;2661;50.786;12.728;2023-05-10T01:49:05;9.40;99.90
5276;DHT22;2661;50.786;12.728;2023-05-10T01:51:36;9.40;99.90
5276;DHT22;2661;50.786;12.728;2023-05-10T01:54:04;9.40;99.90
5276;DHT22;2661;50.786;12.728;2023-05-10T01:56:31;9.30;99.90
5276;DHT22;2661;50.786;12.728;2023-05-10T01:58:58;9.20;99.90
5276;DHT22;2661;50.786;12.728;2023-05-10T02:01:26;9.10;99.90
5276;DHT22;2661;50.786;12.728;2023-05-10T02:03:53;9.10;99.90
5276;DHT22;2661;50.786;12.728;2023-05-10T02:06:21;9.20;99.90
5276;DHT22;2661;50.786;12.728;2023-05-10T02:08:49;9.10;99.90
5276;DHT22;2661;50.786;12.728;2023-05-10T02:11:15;9.20;99.90
5276;DHT22;2661;50.786;12.728;2023-05-10T02:13:44;9.20;99.90
5276;DHT22;2661;50.786;12.728;2023-05-10T02:16:11;9.10;99.90
5276;DHT22;2661;50.786;12.728;2023-05-10T02:18:39;9.00;99.90
5276;DHT22;2661;50.786;12.728;2023-05-10T02:21:07;8.90;99.90
5276;DHT22;2661;50.786;12.728;2023-05-10T02:23:34;8.70;99.90
5276;DHT22;2661;50.786;12.728;2023-05-10T02:26:01;8.60;99.90
5276;DHT22;2661;50.786;12.728;2023-05-10T02:28:28;8.50;99.90
5276;DHT22;2661;50.786;12.728;2023-05-10T02:30:55;8.40;99.90
5276;DHT22;2661;50.786;12.728;2023-05-10T02:33:22;8.50;99.90
5276;DHT22;2661;50.786;12.728;2023-05-10T02:35:50;8.40;99.90
5276;DHT22;2661;50.786;12.728;2023-05-10T02:38:17;8.40;99.90
5276;DHT22;2661;50.786;12.728;2023-05-10T02:40:45;8.40;99.90
5276;DHT22;2661;50.786;12.728;2023-05-10T02:43:12;8.40;99.90
5276;DHT22;2661;50.786;12.728;2023-05-10T02:45:40;8.40;99.90
5276;DHT22;2661;50.786;12.728;2023-05-10T02:48:08;8.40;99.90
5276;DHT22;2661;50.786;12.728;2023-05-10T02:50:34;8.40;99.90
5276;DHT22;2661;50.786;12.728;2023-05-10T02:53:06;8.20;99.90
5276;DHT22;2661;50.786;12.728;2023-05-10T02:55:36;8.10;99.90
5276;DHT22;2661;50.786;12.728;2023-05-10T02:58:03;8.10;99.90
5276;DHT22;2661;50.786;12.728;2023-05-10T03:00:30;8.10;99.90
5276;DHT22;2661;50.786;12.728;2023-05-10T03:02:57;8.10;99.90
5276;DHT22;2661;50.786;12.728;2023-05-10T03:05:23;8.00;99.90
5276;DHT22;2661;50.786;12.728;2023-05-10T03:07:50;7.90;99.90
5276;DHT22;2661;50.786;12.728;2023-05-10T03:10:17;7.80;99.90
5276;DHT22;2661;50.786;12.728;2023-05-10T03:13:03;7.80;99.90
5276;DHT22;2661;50.786;12.728;2023-05-10T03:15:50;7.80;99.90
5276;DHT22;2661;50.786;12.728;2023-05-10T03:18:23;7.90;99.90
5276;DHT22;2661;50.786;12.728;2023-05-10T03:20:54;8.00;99.90
5276;DHT22;2661;50.786;12.728;2023-05-10T03:23:26;8.30;99.90
5276;DHT22;2661;50.786;12.728;2023-05-10T03:25:53;8.40;99.90
5276;DHT22;2661;50.786;12.728;2023-05-10T03:28:20;8.80;99.90
5276;DHT22;2661;50.786;12.728;2023-05-10T03:30:47;8.90;99.90
5276;DHT22;2661;50.786;12.728;2023-05-10T03:33:13;9.10;99.90
5276;DHT22;2661;50.786;12.728;2023-05-10T03:35:40;9.10;99.90
5276;DHT22;2661;50.786;12.728;2023-05-10T03:38:07;9.10;99.90
5276;DHT22;2661;50.786;12.728;2023-05-10T03:40:33;9.10;99.90
5276;DHT22;2661;50.786;12.728;2023-05-10T03:43:00;9.10;99.90
5276;DHT22;2661;50.786;12.728;2023-05-10T03:45:32;9.20;99.90
5276;DHT22;2661;50.786;12.728;2023-05-10T03:47:58;9.20;99.90
5276;DHT22;2661;50.786;12.728;2023-05-10T03:50:25;9.20;99.90
5276;DHT22;2661;50.786;12.728;2023-05-10T03:52:52;9.20;99.90
5276;DHT22;2661;50.786;12.728;2023-05-10T03:55:20;9.20;99.90
5276;DHT22;2661;50.786;12.728;2023-05-10T03:57:46;9.20;99.90
5276;DHT22;2661;50.786;12.728;2023-05-10T04:00:15;9.20;99.90
5276;DHT22;2661;50.786;12.728;2023-05-10T04:02:43;9.20;99.90
5276;DHT22;2661;50.786;12.728;2023-05-10T04:05:11;9.30;99.90
5276;DHT22;2661;50.786;12.728;2023-05-10T04:07:39;9.40;99.90
5276;DHT22;2661;50.786;12.728;2023-05-10T04:10:05;9.50;99.90
5276;DHT22;2661;50.786;12.728;2023-05-10T04:12:32;9.60;99.90
5276;DHT22;2661;50.786;12.728;2023-05-10T04:14:59;9.60;99.90
5276;DHT22;2661;50.786;12.728;2023-05-10T04:17:25;9.60;99.90
5276;DHT22;2661;50.786;12.728;2023-05-10T04:19:52;9.60;99.90
5276;DHT22;2661;50.786;12.728;2023-05-10T04:22:20;9.60;99.90
5276;DHT22;2661;50.786;12.728;2023-05-10T04:24:47;9.60;99.90
5276;DHT22;2661;50.786;12.728;2023-05-10T04:27:14;9.70;99.90
5276;DHT22;2661;50.786;12.728;2023-05-10T04:29:40;9.70;99.90
5276;DHT22;2661;50.786;12.728;2023-05-10T04:32:07;9.80;99.90
5276;DHT22;2661;50.786;12.728;2023-05-10T04:34:34;9.90;99.90
5276;DHT22;2661;50.786;12.728;2023-05-10T04:37:00;10.00;99.90
5276;DHT22;2661;50.786;12.728;2023-05-10T04:39:27;10.10;99.90
5276;DHT22;2661;50.786;12.728;2023-05-10T04:41:53;10.30;99.90
5276;DHT22;2661;50.786;12.728;2023-05-10T04:44:21;10.40;99.90
5276;DHT22;2661;50.786;12.728;2023-05-10T04:46:47;10.50;99.90
5276;DHT22;2661;50.786;12.728;2023-05-10T04:49:14;10.60;99.90
5276;DHT22;2661;50.786;12.728;2023-05-10T04:51:41;10.70;99.90
5276;DHT22;2661;50.786;12.728;2023-05-10T04:54:07;10.80;99.90
5276;DHT22;2661;50.786;12.728;2023-05-10T04:56:34;10.90;99.90
5276;DHT22;2661;50.786;12.728;2023-05-10T04:59:01;11.00;99.90
5276;DHT22;2661;50.786;12.728;2023-05-10T05:01:27;11.10;99.90
5276;DHT22;2661;50.786;12.728;2023-05-10T05:03:54;11.20;99.90
5276;DHT22;2661;50.786;12.728;2023-05-10T05:06:21;11.40;99.90
5276;DHT22;2661;50.786;12.728;2023-05-10T05:08:47;11.40;99.90
5276;DHT22;2661;50.786;12.728;2023-05-10T05:11:16;11.60;99.90
5276;DHT22;2661;50.786;12.728;2023-05-10T05:13:43;11.70;99.90
5276;DHT22;2661;50.786;12.728;2023-05-10T05:16:09;11.70;99.90
5276;DHT22;2661;50.786;12.728;2023-05-10T05:18:37;11.90;99.90
5276;DHT22;2661;50.786;12.728;2023-05-10T05:21:13;12.00;99.90
5276;DHT22;2661;50.786;12.728;2023-05-10T05:23:40;12.00;99.90
5276;DHT22;2661;50.786;12.728;2023-05-10T05:26:06;12.00;99.90
5276;DHT22;2661;50.786;12.728;2023-05-10T05:28:33;12.10;99.90
5276;DHT22;2661;50.786;12.728;2023-05-10T05:31:04;12.20;99.90
5276;DHT22;2661;50.786;12.728;2023-05-10T05:33:31;12.30;99.90
5276;DHT22;2661;50.786;12.728;2023-05-10T05:36:01;12.40;99.90
5276;DHT22;2661;50.786;12.728;2023-05-10T05:38:28;12.40;99.90
5276;DHT22;2661;50.786;12.728;2023-05-10T05:40:55;12.60;99.90
5276;DHT22;2661;50.786;12.728;2023-05-10T05:43:21;12.70;99.90
5276;DHT22;2661;50.786;12.728;2023-05-10T05:45:48;12.90;99.90
5276;DHT22;2661;50.786;12.728;2023-05-10T05:48:15;13.00;99.90
5276;DHT22;2661;50.786;12.728;2023-05-10T05:50:41;13.10;99.90
5276;DHT22;2661;50.786;12.728;2023-05-10T05:53:08;13.20;99.90
5276;DHT22;2661;50.786;12.728;2023-05-10T05:55:35;13.20;99.90
5276;DHT22;2661;50.786;12.728;2023-05-10T05:58:02;13.20;99.90
5276;DHT22;2661;50.786;12.728;2023-05-10T06:00:29;13.30;99.90
5276;DHT22;2661;50.786;12.728;2023-05-10T06:02:55;13.30;99.90
5276;DHT22;2661;50.786;12.728;2023-05-10T06:05:22;13.30;99.90
5276;DHT22;2661;50.786;12.728;2023-05-10T06:07:49;13.20;99.90
5276;DHT22;2661;50.786;12.728;2023-05-10T06:10:16;13.30;99.90
5276;DHT22;2661;50.786;12.728;2023-05-10T06:12:42;13.40;99.90
5276;DHT22;2661;50.786;12.728;2023-05-10T06:15:09;13.40;99.90
5276;DHT22;2661;50.786;12.728;2023-05-10T06:17:35;13.40;99.90
5276;DHT22;2661;50.786;12.728;2023-05-10T06:20:02;13.50;99.90
5276;DHT22;2661;50.786;12.728;2023-05-10T06:22:29;13.50;99.90
5276;DHT22;2661;50.786;12.728;2023-05-10T06:24:55;13.50;99.90
5276;DHT22;2661;50.786;12.728;2023-05-10T06:27:22;13.50;99.90
5276;DHT22;2661;50.786;12.728;2023-05-10T06:29:49;13.50;99.90
5276;DHT22;2661;50.786;12.728;2023-05-10T06:32:24;13.50;99.90
5276;DHT22;2661;50.786;12.728;2023-05-10T06:34:51;13.50;99.90
5276;DHT22;2661;50.786;12.728;2023-05-10T06:37:18;13.50;99.90
5276;DHT22;2661;50.786;12.728;2023-05-10T06:39:44;13.50;99.90
5276;DHT22;2661;50.786;12.728;2023-05-10T06:42:11;13.50;99.90
5276;DHT22;2661;50.786;12.728;2023-05-10T06:44:38;13.50;99.90
5276;DHT22;2661;50.786;12.728;2023-05-10T06:47:04;13.50;99.90
5276;DHT22;2661;50.786;12.728;2023-05-10T06:49:31;13.50;99.90
5276;DHT22;2661;50.786;12.728;2023-05-10T06:51:57;13.70;99.90
5276;DHT22;2661;50.786;12.728;2023-05-10T06:54:24;13.70;99.90
5276;DHT22;2661;50.786;12.728;2023-05-10T06:56:51;13.70;99.90
5276;DHT22;2661;50.786;12.728;2023-05-10T06:59:18;13.70;99.90
5276;DHT22;2661;50.786;12.728;2023-05-10T07:01:45;13.90;99.90
5276;DHT22;2661;50.786;12.728;2023-05-10T07:04:12;13.90;99.90
5276;DHT22;2661;50.786;12.728;2023-05-10T07:06:39;14.00;99.90
5276;DHT22;2661;50.786;12.728;2023-05-10T07:09:05;14.10;99.90
5276;DHT22;2661;50.786;12.728;2023-05-10T07:11:32;14.20;99.90
5276;DHT22;2661;50.786;12.728;2023-05-10T07:13:58;14.20;99.90
5276;DHT22;2661;50.786;12.728;2023-05-10T07:16:25;14.20;99.90
5276;DHT22;2661;50.786;12.728;2023-05-10T07:18:52;14.20;99.90
5276;DHT22;2661;50.786;12.728;2023-05-10T07:21:19;14.30;99.90
5276;DHT22;2661;50.786;12.728;2023-05-10T07:23:46;14.30;99.90
5276;DHT22;2661;50.786;12.728;2023-05-10T07:26:13;14.30;99.90
5276;DHT22;2661;50.786;12.728;2023-05-10T07:28:41;14.30;99.90
5276;DHT22;2661;50.786;12.728;2023-05-10T07:31:08;14.40;99.90
5276;DHT22;2661;50.786;12.728;2023-05-10T07:33:35;14.50;99.90
5276;DHT22;2661;50.786;12.728;2023-05-10T07:36:01;14.40;99.90
5276;DHT22;2661;50.786;12.728;2023-05-10T07:38:28;14.40;99.90
5276;DHT22;2661;50.786;12.728;2023-05-10T07:40:54;14.50;99.90
5276;DHT22;2661;50.786;12.728;2023-05-10T07:43:21;14.40;99.90
5276;DHT22;2661;50.786;12.728;2023-05-10T07:45:47;14.30;99.90
5276;DHT22;2661;50.786;12.728;2023-05-10T07:48:14;14.20;99.90
5276;DHT22;2661;50.786;12.728;2023-05-10T07:50:40;14.10;99.90
5276;DHT22;2661;50.786;12.728;2023-05-10T07:53:07;14.00;99.90
5276;DHT22;2661;50.786;12.728;2023-05-10T07:55:34;14.00;99.90
5276;DHT22;2661;50.786;12.728;2023-05-10T07:58:01;14.00;99.90
5276;DHT22;2661;50.786;12.728;2023-05-10T08:00:27;13.90;99.90
5276;DHT22;2661;50.786;12.728;2023-05-10T08:02:54;13.90;99.90
5276;DHT22;2661;50.786;12.728;2023-05-10T08:05:20;13.90;99.90
5276;DHT22;2661;50.786;12.728;2023-05-10T08:07:47;13.80;99.90
5276;DHT22;2661;50.786;12.728;2023-05-10T08:10:13;13.80;99.90
5276;DHT22;2661;50.786;12.728;2023-05-10T08:12:40;13.70;99.90
5276;DHT22;2661;50.786;12.728;2023-05-10T08:15:07;13.70;99.90
5276;DHT22;2661;50.786;12.728;2023-05-10T08:17:34;13.60;99.90
5276;DHT22;2661;50.786;12.728;2023-05-10T08:20:00;13.50;99.90
5276;DHT22;2661;50.786;12.728;2023-05-10T08:22:27;13.50;99.90
5276;DHT22;2661;50.786;12.728;2023-05-10T08:24:54;13.60;99.90
5276;DHT22;2661;50.786;12.728;2023-05-10T08:27:20;13.60;99.90
5276;DHT22;2661;50.786;12.728;2023-05-10T08:29:47;13.60;99.90
5276;DHT22;2661;50.786;12.728;2023-05-10T08:32:16;13.60;99.90
5276;DHT22;2661;50.786;12.728;2023-05-10T08:34:42;13.70;99.90
5276;DHT22;2661;50.786;12.728;2023-05-10T08:37:09;13.60;99.90
5276;DHT22;2661;50.786;12.728;2023-05-10T08:39:39;13.50;99.90
5276;DHT22;2661;50.786;12.728;2023-05-10T08:42:06;13.50;99.90
5276;DHT22;2661;50.786;12.728;2023-05-10T08:44:32;13.50;99.90
5276;DHT22;2661;50.786;12.728;2023-05-10T08:47:01;13.50;99.90
5276;DHT22;2661;50.786;12.728;2023-05-10T08:49:28;13.50;99.90
5276;DHT22;2661;50.786;12.728;2023-05-10T08:51:57;13.60;99.90
5276;DHT22;2661;50.786;12.728;2023-05-10T08:54:23;13.60;99.90
5276;DHT22;2661;50.786;12.728;2023-05-10T08:56:50;13.70;99.90
5276;DHT22;2661;50.786;12.728;2023-05-10T08:59:17;13.50;99.90
5276;DHT22;2661;50.786;12.728;2023-05-10T09:01:44;13.50;99.90
5276;DHT22;2661;50.786;12.728;2023-05-10T09:04:12;13.50;99.90
5276;DHT22;2661;50.786;12.728;2023-05-10T09:06:38;13.50;99.90
5276;DHT22;2661;50.786;12.728;2023-05-10T09:09:05;13.50;99.90
5276;DHT22;2661;50.786;12.728;2023-05-10T09:11:32;13.50;99.90
5276;DHT22;2661;50.786;12.728;2023-05-10T09:13:59;13.50;99.90
5276;DHT22;2661;50.786;12.728;2023-05-10T09:16:26;13.50;99.90
5276;DHT22;2661;50.786;12.728;2023-05-10T09:18:52;13.40;99.90
5276;DHT22;2661;50.786;12.728;2023-05-10T09:21:19;13.40;99.90
5276;DHT22;2661;50.786;12.728;2023-05-10T09:23:46;13.40;99.90
5276;DHT22;2661;50.786;12.728;2023-05-10T09:26:16;13.40;99.90
5276;DHT22;2661;50.786;12.728;2023-05-10T09:28:57;13.40;99.90
5276;DHT22;2661;50.786;12.728;2023-05-10T09:31:23;13.40;99.90
5276;DHT22;2661;50.786;12.728;2023-05-10T09:33:52;13.50;99.90
5276;DHT22;2661;50.786;12.728;2023-05-10T09:36:19;13.50;99.90
5276;DHT22;2661;50.786;12.728;2023-05-10T09:38:46;13.50;99.90
5276;DHT22;2661;50.786;12.728;2023-05-10T09:43:44;13.50;99.90
5276;DHT22;2661;50.786;12.728;2023-05-10T09:46:11;13.50;99.90
5276;DHT22;2661;50.786;12.728;2023-05-10T09:48:44;13.60;99.90
5276;DHT22;2661;50.786;12.728;2023-05-10T09:51:21;13.60;99.90
5276;DHT22;2661;50.786;12.728;2023-05-10T09:53:48;13.70;99.90
5276;DHT22;2661;50.786;12.728;2023-05-10T09:56:32;13.80;99.90
5276;DHT22;2661;50.786;12.728;2023-05-10T09:59:02;13.80;99.90
5276;DHT22;2661;50.786;12.728;2023-05-10T10:01:28;13.90;99.90
5276;DHT22;2661;50.786;12.728;2023-05-10T10:03:55;14.00;99.90
5276;DHT22;2661;50.786;12.728;2023-05-10T10:06:24;14.00;99.90
5276;DHT22;2661;50.786;12.728;2023-05-10T10:08:56;14.10;99.90
5276;DHT22;2661;50.786;12.728;2023-05-10T10:11:22;14.10;99.90
5276;DHT22;2661;50.786;12.728;2023-05-10T10:13:49;14.10;99.90
5276;DHT22;2661;50.786;12.728;2023-05-10T10:16:16;14.00;99.90
5276;DHT22;2661;50.786;12.728;2023-05-10T10:18:43;14.00;99.90
5276;DHT22;2661;50.786;12.728;2023-05-10T10:21:10;13.90;99.90
5276;DHT22;2661;50.786;12.728;2023-05-10T10:23:36;13.90;99.90
5276;DHT22;2661;50.786;12.728;2023-05-10T10:26:03;14.00;99.90
5276;DHT22;2661;50.786;12.728;2023-05-10T10:28:48;14.00;99.90
5276;DHT22;2661;50.786;12.728;2023-05-10T10:31:26;14.00;99.90
5276;DHT22;2661;50.786;12.728;2023-05-10T10:34:01;14.00;99.90
5276;DHT22;2661;50.786;12.728;2023-05-10T10:36:29;14.00;99.90
5276;DHT22;2661;50.786;12.728;2023-05-10T10:39:00;13.90;99.90
5276;DHT22;2661;50.786;12.728;2023-05-10T10:41:28;13.90;99.90
5276;DHT22;2661;50.786;12.728;2023-05-10T10:47:00;13.90;99.90
5276;DHT22;2661;50.786;12.728;2023-05-10T10:49:27;13.80;99.90
5276;DHT22;2661;50.786;12.728;2023-05-10T10:54:39;13.80;99.90
5276;DHT22;2661;50.786;12.728;2023-05-10T10:57:12;13.80;99.90
5276;DHT22;2661;50.786;12.728;2023-05-10T10:59:43;13.60;99.90
5276;DHT22;2661;50.786;12.728;2023-05-10T11:04:58;13.40;99.90
5276;DHT22;2661;50.786;12.728;2023-05-10T11:07:24;13.40;99.90
5276;DHT22;2661;50.786;12.728;2023-05-10T11:09:51;13.40;1.00
5276;DHT22;2661;50.786;12.728;2023-05-10T11:12:18;13.50;1.00
5276;DHT22;2661;50.786;12.728;2023-05-10T11:14:49;13.60;1.00
5276;DHT22;2661;50.786;12.728;2023-05-10T11:17:23;13.60;1.00
5276;DHT22;2661;50.786;12.728;2023-05-10T11:20:06;13.70;1.00
5276;DHT22;2661;50.786;12.728;2023-05-10T11:22:48;13.80;1.00
5276;DHT22;2661;50.786;12.728;2023-05-10T11:25:16;13.90;1.00
5276;DHT22;2661;50.786;12.728;2023-05-10T11:27:42;14.00;1.00
5276;DHT22;2661;50.786;12.728;2023-05-10T11:30:09;14.10;1.00
5276;DHT22;2661;50.786;12.728;2023-05-10T11:32:40;14.20;1.00
5276;DHT22;2661;50.786;12.728;2023-05-10T11:35:07;14.20;1.00
5276;DHT22;2661;50.786;12.728;2023-05-10T11:37:34;14.30;1.00
5276;DHT22;2661;50.786;12.728;2023-05-10T11:40:00;14.20;1.00
5276;DHT22;2661;50.786;12.728;2023-05-10T11:42:27;14.30;1.00
5276;DHT22;2661;50.786;12.728;2023-05-10T11:44:54;14.40;1.00
5276;DHT22;2661;50.786;12.728;2023-05-10T11:47:21;14.40;1.00
5276;DHT22;2661;50.786;12.728;2023-05-10T11:49:47;14.50;1.00
5276;DHT22;2661;50.786;12.728;2023-05-10T11:52:14;14.60;1.00
5276;DHT22;2661;50.786;12.728;2023-05-10T11:54:50;14.70;1.00
5276;DHT22;2661;50.786;12.728;2023-05-10T11:57:25;14.70;1.00
5276;DHT22;2661;50.786;12.728;2023-05-10T11:59:56;14.70;1.00
5276;DHT22;2661;50.786;12.728;2023-05-10T12:02:22;14.80;1.00
5276;DHT22;2661;50.786;12.728;2023-05-10T12:04:49;14.90;1.00
5276;DHT22;2661;50.786;12.728;2023-05-10T12:07:16;15.00;1.00
5276;DHT22;2661;50.786;12.728;2023-05-10T12:09:43;15.10;1.00
5276;DHT22;2661;50.786;12.728;2023-05-10T12:12:17;15.10;1.00
5276;DHT22;2661;50.786;12.728;2023-05-10T12:14:43;15.00;1.00
5276;DHT22;2661;50.786;12.728;2023-05-10T12:17:13;15.10;1.00
5276;DHT22;2661;50.786;12.728;2023-05-10T12:19:40;15.00;1.00
5276;DHT22;2661;50.786;12.728;2023-05-10T12:22:07;15.00;1.00
5276;DHT22;2661;50.786;12.728;2023-05-10T12:24:34;15.00;1.00
5276;DHT22;2661;50.786;12.728;2023-05-10T12:27:04;15.00;1.00
5276;DHT22;2661;50.786;12.728;2023-05-10T12:29:31;15.00;1.00
5276;DHT22;2661;50.786;12.728;2023-05-10T12:31:58;15.00;1.00
5276;DHT22;2661;50.786;12.728;2023-05-10T12:34:26;15.00;1.00
5276;DHT22;2661;50.786;12.728;2023-05-10T12:36:53;14.80;1.00
5276;DHT22;2661;50.786;12.728;2023-05-10T12:39:19;14.80;1.00
5276;DHT22;2661;50.786;12.728;2023-05-10T12:41:46;14.70;1.00
5276;DHT22;2661;50.786;12.728;2023-05-10T12:44:12;14.70;1.00
5276;DHT22;2661;50.786;12.728;2023-05-10T12:46:39;14.70;1.00
5276;DHT22;2661;50.786;12.728;2023-05-10T12:49:06;14.70;1.00
5276;DHT22;2661;50.786;12.728;2023-05-10T12:51:35;14.80;1.00
5276;DHT22;2661;50.786;12.728;2023-05-10T12:54:02;14.90;1.00
5276;DHT22;2661;50.786;12.728;2023-05-10T12:56:29;14.90;1.00
5276;DHT22;2661;50.786;12.728;2023-05-10T12:58:55;14.90;1.00
5276;DHT22;2661;50.786;12.728;2023-05-10T13:01:22;14.90;1.00
5276;DHT22;2661;50.786;12.728;2023-05-10T13:03:48;14.90;1.00
5276;DHT22;2661;50.786;12.728;2023-05-10T13:06:15;14.80;1.00
5276;DHT22;2661;50.786;12.728;2023-05-10T13:08:42;14.80;1.00
5276;DHT22;2661;50.786;12.728;2023-05-10T13:11:08;14.80;1.00
5276;DHT22;2661;50.786;12.728;2023-05-10T13:13:35;14.90;1.00
5276;DHT22;2661;50.786;12.728;2023-05-10T13:16:01;15.00;1.00
5276;DHT22;2661;50.786;12.728;2023-05-10T13:18:28;15.10;1.00
5276;DHT22;2661;50.786;12.728;2023-05-10T13:20:55;15.10;1.00
5276;DHT22;2661;50.786;12.728;2023-05-10T13:23:22;15.20;1.00
5276;DHT22;2661;50.786;12.728;2023-05-10T13:25:48;15.20;1.00
5276;DHT22;2661;50.786;12.728;2023-05-10T13:28:15;15.20;1.00
5276;DHT22;2661;50.786;12.728;2023-05-10T13:30:41;15.20;1.00
5276;DHT22;2661;50.786;12.728;2023-05-10T13:33:08;15.10;1.00
5276;DHT22;2661;50.786;12.728;2023-05-10T13:35:34;15.10;1.00
5276;DHT22;2661;50.786;12.728;2023-05-10T13:38:01;15.20;1.00
5276;DHT22;2661;50.786;12.728;2023-05-10T13:40:27;15.30;1.00
5276;DHT22;2661;50.786;12.728;2023-05-10T13:42:54;15.30;1.00
5276;DHT22;2661;50.786;12.728;2023-05-10T13:45:21;15.30;1.00
5276;DHT22;2661;50.786;12.728;2023-05-10T13:47:47;15.30;1.00
5276;DHT22;2661;50.786;12.728;2023-05-10T13:50:14;15.40;1.00
5276;DHT22;2661;50.786;12.728;2023-05-10T13:52:40;15.50;1.00
5276;DHT22;2661;50.786;12.728;2023-05-10T13:55:07;15.40;1.00
5276;DHT22;2661;50.786;12.728;2023-05-10T13:57:34;15.40;1.00
5276;DHT22;2661;50.786;12.728;2023-05-10T14:00:02;15.40;1.00
5276;DHT22;2661;50.786;12.728;2023-05-10T14:02:28;15.40;1.00
5276;DHT22;2661;50.786;12.728;2023-05-10T14:04:55;15.50;1.00
5276;DHT22;2661;50.786;12.728;2023-05-10T14:07:22;15.50;1.00
5276;DHT22;2661;50.786;12.728;2023-05-10T14:09:48;15.60;1.00
5276;DHT22;2661;50.786;12.728;2023-05-10T14:12:15;15.60;99.90
5276;DHT22;2661;50.786;12.728;2023-05-10T14:14:42;15.70;99.90
5276;DHT22;2661;50.786;12.728;2023-05-10T14:17:09;15.70;99.90
5276;DHT22;2661;50.786;12.728;2023-05-10T14:19:38;15.70;99.90
5276;DHT22;2661;50.786;12.728;2023-05-10T14:22:05;15.80;99.90
5276;DHT22;2661;50.786;12.728;2023-05-10T14:24:32;15.70;99.90
5276;DHT22;2661;50.786;12.728;2023-05-10T14:26:58;15.70;99.90
5276;DHT22;2661;50.786;12.728;2023-05-10T14:29:25;15.50;99.90
5276;DHT22;2661;50.786;12.728;2023-05-10T14:31:51;15.60;99.90
5276;DHT22;2661;50.786;12.728;2023-05-10T14:34:18;15.50;99.90
5276;DHT22;2661;50.786;12.728;2023-05-10T14:36:45;15.40;99.90
5276;DHT22;2661;50.786;12.728;2023-05-10T14:39:11;15.50;99.90
5276;DHT22;2661;50.786;12.728;2023-05-10T14:41:39;15.50;99.90
5276;DHT22;2661;50.786;12.728;2023-05-10T14:44:10;15.40;99.90
5276;DHT22;2661;50.786;12.728;2023-05-10T14:46:37;15.30;99.90
5276;DHT22;2661;50.786;12.728;2023-05-10T14:49:04;15.40;99.90
5276;DHT22;2661;50.786;12.728;2023-05-10T14:51:31;15.40;99.90
5276;DHT22;2661;50.786;12.728;2023-05-10T14:53:58;15.50;99.90
5276;DHT22;2661;50.786;12.728;2023-05-10T14:56:24;15.50;1.00
5276;DHT22;2661;50.786;12.728;2023-05-10T14:58:52;15.60;1.00
5276;DHT22;2661;50.786;12.728;2023-05-10T15:01:19;15.60;99.90
5276;DHT22;2661;50.786;12.728;2023-05-10T15:03:46;15.60;99.90
5276;DHT22;2661;50.786;12.728;2023-05-10T15:06:14;15.60;99.90
5276;DHT22;2661;50.786;12.728;2023-05-10T15:08:41;15.50;99.90
5276;DHT22;2661;50.786;12.728;2023-05-10T15:11:07;15.50;99.90
5276;DHT22;2661;50.786;12.728;2023-05-10T15:13:34;15.50;99.90
5276;DHT22;2661;50.786;12.728;2023-05-10T15:16:00;15.40;99.90
5276;DHT22;2661;50.786;12.728;2023-05-10T15:18:27;15.30;99.90
5276;DHT22;2661;50.786;12.728;2023-05-10T15:20:54;15.30;99.90
5276;DHT22;2661;50.786;12.728;2023-05-10T15:23:21;15.30;99.90
5276;DHT22;2661;50.786;12.728;2023-05-10T15:25:48;15.20;99.90
5276;DHT22;2661;50.786;12.728;2023-05-10T15:28:16;15.20;1.00
5276;DHT22;2661;50.786;12.728;2023-05-10T15:30:42;15.20;1.00
5276;DHT22;2661;50.786;12.728;2023-05-10T15:33:09;15.20;1.00
5276;DHT22;2661;50.786;12.728;2023-05-10T15:35:35;15.10;1.00
5276;DHT22;2661;50.786;12.728;2023-05-10T15:38:04;15.10;1.00
5276;DHT22;2661;50.786;12.728;2023-05-10T15:40:32;15.10;1.00
5276;DHT22;2661;50.786;12.728;2023-05-10T15:42:58;15.10;1.00
5276;DHT22;2661;50.786;12.728;2023-05-10T15:45:25;15.10;1.00
5276;DHT22;2661;50.786;12.728;2023-05-10T15:47:51;15.10;1.00
5276;DHT22;2661;50.786;12.728;2023-05-10T15:50:18;15.10;1.00
5276;DHT22;2661;50.786;12.728;2023-05-10T15:52:45;15.20;1.00
5276;DHT22;2661;50.786;12.728;2023-05-10T15:55:11;15.10;1.00
5276;DHT22;2661;50.786;12.728;2023-05-10T15:57:39;15.20;1.00
5276;DHT22;2661;50.786;12.728;2023-05-10T16:00:06;15.20;1.00
5276;DHT22;2661;50.786;12.728;2023-05-10T16:02:33;15.10;1.00
5276;DHT22;2661;50.786;12.728;2023-05-10T16:05:00;15.10;99.90
5276;DHT22;2661;50.786;12.728;2023-05-10T16:07:27;15.10;1.00
5276;DHT22;2661;50.786;12.728;2023-05-10T16:09:54;15.00;1.00
5276;DHT22;2661;50.786;12.728;2023-05-10T16:12:21;14.90;1.00
5276;DHT22;2661;50.786;12.728;2023-05-10T16:14:47;14.80;1.00
5276;DHT22;2661;50.786;12.728;2023-05-10T16:17:14;14.80;1.00
5276;DHT22;2661;50.786;12.728;2023-05-10T16:19:41;14.80;1.00